^^
Datos históricos de la estación: Murcia-Puente Tocinos
Diario Informe para Septiembre 3, 2019 Unidades:  Ingés    Métrico   Ambas
Diario Semanal Mensual Anual
  Máxima: Mínima: Promedio:
Temperatura: 79.2 °F 66.9 °F 72.9 °F
Punto de rocio: 53.2 °F 43.7 °F 49.5 °F
Humedad: 57% 36.8% 44%
Velocidad viento: 17.5mph 1.4mph 7.8mph
Racha viento: 31.1mph - -
Viento- - OSO
Presión: 29.9 in 29.6 in -
Precipitación: 0 in    
 
 
Tabla de datos para Septiembre 3, 2019
Hora Temperatura Punto de rocio Presión Viento Velocidad viento Racha viento Humedad Intensidad lluvia(por hora) Nubes
00:04 70.5 °F 52.5 °F 29.7 in SO 6.9 mph 15 mph 53% 0 in
00:09 70.5 °F 52.3 °F 29.7 in SSO 6.9 mph 15 mph 52.5% 0 in
00:14 70.7 °F 52.3 °F 29.7 in SSO 7.5 mph 14 mph 52.3% 0 in
00:19 70.5 °F 52.5 °F 29.7 in SO 7.6 mph 12.7 mph 53% 0 in
00:24 70.2 °F 52.3 °F 29.7 in SSO 7.5 mph 13 mph 53.1% 0 in
00:29 70.2 °F 52.2 °F 29.7 in SSO 7.4 mph 16.1 mph 53.1% 0 in
00:34 70.2 °F 52.2 °F 29.7 in SSO 8 mph 16 mph 53% 0 in
00:39 70.2 °F 52.2 °F 29.7 in SSO 8.1 mph 13 mph 53% 0 in
00:44 70.2 °F 52.2 °F 29.7 in SSO 7.6 mph 13 mph 53% 0 in
00:49 70.3 °F 52.2 °F 29.7 in SO 7.4 mph 12 mph 52.4% 0 in
00:54 70.5 °F 52 °F 29.7 in SO 6.5 mph 12.7 mph 52% 0 in
00:59 70.9 °F 51.8 °F 29.7 in SO 6.2 mph 13 mph 51% 0 in
01:04 70.9 °F 51.8 °F 29.7 in SO 6.8 mph 13 mph 51% 0 in
01:09 70.9 °F 51.8 °F 29.7 in SO 6.9 mph 13 mph 51% 0 in
01:14 70.9 °F 51.8 °F 29.7 in SO 6.5 mph 12.3 mph 51% 0 in
01:19 70.9 °F 51.8 °F 29.7 in OSO 6.4 mph 14 mph 51% 0 in
01:24 70.7 °F 52 °F 29.7 in SO 6.4 mph 14 mph 51.8% 0 in
01:29 70.5 °F 52 °F 29.7 in SO 6.4 mph 14 mph 52% 0 in
01:34 70.5 °F 52 °F 29.7 in SO 6.4 mph 11 mph 52% 0 in
01:39 70.5 °F 52 °F 29.7 in SO 6.4 mph 11.5 mph 52% 0 in
01:44 70.5 °F 52 °F 29.6 in SO 6.4 mph 12 mph 52% 0 in
01:49 70.5 °F 52 °F 29.6 in SO 6.4 mph 10.7 mph 52% 0 in
01:54 70.5 °F 52 °F 29.6 in SO 6.4 mph 11.5 mph 52% 0 in
01:59 70.7 °F 52.2 °F 29.6 in SO 6.4 mph 12 mph 52% 0 in
02:04 70.7 °F 52.2 °F 29.6 in OSO 6 mph 10 mph 52% 0 in
02:09 70.5 °F 52.2 °F 29.6 in OSO 5.9 mph 9 mph 52% 0 in
02:14 70.3 °F 52.2 °F 29.6 in Oeste 5 mph 9.2 mph 52.5% 0 in
02:19 70.2 °F 52.2 °F 29.6 in OSO 4.7 mph 9.2 mph 53% 0 in
02:24 70.2 °F 52.2 °F 29.6 in OSO 4.7 mph 9.2 mph 53% 0 in
02:29 70.3 °F 52.3 °F 29.6 in OSO 4.7 mph 9.7 mph 53% 0 in
02:34 70.5 °F 52.5 °F 29.6 in OSO 4.7 mph 10 mph 53% 0 in
02:39 70.5 °F 52.5 °F 29.6 in SO 4.7 mph 7.4 mph 53% 0 in
02:44 70.5 °F 52.5 °F 29.6 in Oeste 4.2 mph 8.5 mph 52.8% 0 in
02:49 70.5 °F 52.5 °F 29.6 in Oeste 4 mph 9 mph 53% 0 in
02:54 70.2 °F 52.7 °F 29.6 in Oeste 4.2 mph 8 mph 54% 0 in
02:59 69.8 °F 52.5 °F 29.6 in Oeste 4.3 mph 7.4 mph 54.3% 0 in
03:04 69.6 °F 52.7 °F 29.6 in Oeste 4 mph 7 mph 55% 0 in
03:09 69.4 °F 52.7 °F 29.6 in ONO 4 mph 7 mph 55% 0 in
03:14 69.4 °F 52.7 °F 29.6 in Oeste 4 mph 8.1 mph 55.2% 0 in
03:19 69.3 °F 52.9 °F 29.6 in ONO 4 mph 8 mph 56% 0 in
03:24 69.3 °F 52.9 °F 29.6 in Oeste 4.2 mph 7 mph 56% 0 in
03:29 69.3 °F 52.9 °F 29.6 in Oeste 4.3 mph 6 mph 56% 0 in
03:34 69.3 °F 52.9 °F 29.6 in Oeste 3.7 mph 6 mph 56% 0 in
03:39 69.3 °F 52.9 °F 29.6 in OSO 3.6 mph 5.8 mph 56% 0 in
03:44 69.1 °F 52.7 °F 29.6 in OSO 3 mph 6 mph 56% 0 in
03:49 69.1 °F 52.7 °F 29.6 in OSO 2.9 mph 5 mph 56% 0 in
03:54 69.1 °F 52.7 °F 29.6 in SO 2.5 mph 5 mph 56% 0 in
03:59 69.3 °F 52.9 °F 29.6 in SSO 2.4 mph 5.8 mph 56% 0 in
04:04 69.3 °F 52.9 °F 29.6 in Sur 3 mph 6.9 mph 56% 0 in
04:09 69.3 °F 53.1 °F 29.6 in Sur 3.1 mph 7 mph 56.5% 0 in
04:14 69.1 °F 53.2 °F 29.6 in Sur 4.3 mph 8.1 mph 57% 0 in
04:19 69.1 °F 52.9 °F 29.6 in SSO 4.7 mph 8 mph 56.4% 0 in
04:24 69.3 °F 52.9 °F 29.6 in Sur 4.4 mph 7.6 mph 55.9% 0 in
04:29 69.4 °F 52.7 °F 29.6 in SSO 4.3 mph 8.1 mph 55% 0 in
04:34 69.8 °F 52.7 °F 29.6 in Sur 4.6 mph 8 mph 54.5% 0 in
04:39 70.2 °F 52.7 °F 29.6 in Sur 4.7 mph 8.1 mph 54% 0 in
04:44 70.3 °F 52.5 °F 29.6 in SSO 4.7 mph 8.1 mph 53.3% 0 in
04:49 70.3 °F 52.3 °F 29.6 in SSO 4.7 mph 8.1 mph 53% 0 in
04:54 70.5 °F 52.2 °F 29.6 in SO 5.3 mph 12.3 mph 52.3% 0 in
04:59 70.9 °F 50.5 °F 29.6 in SO 5.4 mph 21.9 mph 48.5% 0 in
05:04 71.8 °F 48.6 °F 29.6 in SO 8.5 mph 22 mph 43.8% 0 in
05:09 72.1 °F 48 °F 29.6 in SO 9.2 mph 22 mph 42.2% 0 in
05:14 72.3 °F 47.8 °F 29.6 in SO 9.6 mph 17.3 mph 41.9% 0 in
05:19 72.3 °F 47.3 °F 29.6 in SO 9.7 mph 17.3 mph 41% 0 in
05:24 72.3 °F 47.3 °F 29.6 in SO 10.4 mph 20.7 mph 41% 0 in
05:29 72.1 °F 46.9 °F 29.6 in SO 10.7 mph 21 mph 40.6% 0 in
05:34 72.1 °F 47.1 °F 29.6 in OSO 11.1 mph 18 mph 41% 0 in
05:39 72 °F 46.9 °F 29.6 in SO 11.2 mph 20.8 mph 41% 0 in
05:44 72 °F 46.9 °F 29.6 in SO 11.2 mph 21 mph 41% 0 in
05:49 71.8 °F 47.3 °F 29.6 in SO 11.2 mph 21 mph 41.7% 0 in
05:54 71.8 °F 47.3 °F 29.6 in SO 9.6 mph 19.7 mph 41.8% 0 in
05:59 72 °F 47.5 °F 29.6 in SSO 9.2 mph 20 mph 42% 0 in
06:04 71.8 °F 47.3 °F 29.6 in SSO 10 mph 20.7 mph 41.6% 0 in
06:09 71.6 °F 47.3 °F 29.6 in SSO 10.2 mph 21 mph 42% 0 in
06:14 71.4 °F 47.1 °F 29.6 in SO 8.8 mph 16.1 mph 42% 0 in
06:19 71.1 °F 46.9 °F 29.6 in SO 8.5 mph 15 mph 42% 0 in
06:24 70.9 °F 47.1 °F 29.6 in SO 8.5 mph 14 mph 43% 0 in
06:29 70.5 °F 46.4 °F 29.6 in SO 8.5 mph 14 mph 42.3% 0 in
06:34 70.3 °F 46 °F 29.6 in SSO 7.6 mph 15.2 mph 41.8% 0 in
06:39 70.3 °F 45.3 °F 29.6 in SSO 7.4 mph 18.4 mph 40.7% 0 in
06:44 70.3 °F 45 °F 29.6 in SSO 8.4 mph 18.4 mph 40% 0 in
06:49 70.3 °F 44.4 °F 29.6 in SSO 8.7 mph 21.9 mph 39.3% 0 in
06:54 70.3 °F 44.2 °F 29.6 in SSO 10.8 mph 22 mph 39% 0 in
06:59 70.2 °F 44.1 °F 29.6 in SSO 11.4 mph 21 mph 39% 0 in
07:04 70.2 °F 43.9 °F 29.6 in SSO 12.1 mph 20 mph 39% 0 in
07:09 69.8 °F 43.7 °F 29.6 in SSO 12.3 mph 18 mph 39% 0 in
07:14 69.6 °F 43.7 °F 29.6 in SSO 10.5 mph 18.4 mph 39.3% 0 in
07:19 69.6 °F 44.1 °F 29.6 in SSO 10 mph 18 mph 39.9% 0 in
07:24 69.6 °F 44.2 °F 29.6 in SSO 10 mph 21.9 mph 39.9% 0 in
07:29 70 °F 44.4 °F 29.6 in SSO 10 mph 22 mph 40% 0 in
07:34 70.2 °F 44.6 °F 29.6 in SSO 11.1 mph 21.3 mph 40% 0 in
07:39 70.2 °F 45.1 °F 29.6 in SSO 11.4 mph 21 mph 40.6% 0 in
07:44 70.3 °F 45.5 °F 29.6 in SSO 11.7 mph 21 mph 41% 0 in
07:49 70.3 °F 45.5 °F 29.6 in SSO 11.8 mph 21.9 mph 41% 0 in
07:54 70.3 °F 45.5 °F 29.6 in SSO 11.5 mph 22 mph 41% 0 in
07:59 70.3 °F 45.5 °F 29.6 in SSO 11.4 mph 17.5 mph 41% 0 in
08:04 70.3 °F 45.9 °F 29.6 in SSO 10.4 mph 17 mph 41.5% 0 in
08:09 70.3 °F 46.2 °F 29.6 in SSO 10.2 mph 18.5 mph 42% 0 in
08:14 70.3 °F 46.2 °F 29.6 in SSO 10.1 mph 19 mph 42% 0 in
08:19 70.3 °F 46.4 °F 29.6 in SSO 10 mph 16.8 mph 42.2% 0 in
08:24 70.3 °F 46.8 °F 29.6 in SSO 9 mph 17.3 mph 43% 0 in
08:29 70.3 °F 46.8 °F 29.6 in SSO 8.7 mph 13 mph 43% 0 in
08:34 70.3 °F 47.3 °F 29.6 in SSO 7.8 mph 15 mph 43.8% 0 in
08:39 70.5 °F 47.5 °F 29.6 in SSO 7.6 mph 15 mph 44% 0 in
08:44 70.5 °F 47.5 °F 29.6 in SSO 8.4 mph 15 mph 44% 0 in
08:49 70.5 °F 47.7 °F 29.6 in SSO 8.7 mph 15 mph 44% 0 in
08:54 70.9 °F 47.8 °F 29.6 in SSO 8.7 mph 15 mph 44% 0 in
08:59 71.1 °F 48 °F 29.6 in SSO 8.7 mph 17.3 mph 44% 0 in
09:04 71.2 °F 48.4 °F 29.6 in SSO 8.5 mph 17 mph 44% 0 in
09:09 71.6 °F 48.4 °F 29.6 in SSO 8.5 mph 16 mph 44% 0 in
09:14 71.8 °F 48.7 °F 29.6 in SSO 8.6 mph 15.9 mph 44% 0 in
09:19 72 °F 48.9 °F 29.6 in SSO 8.7 mph 16.1 mph 44% 0 in
09:24 72.1 °F 49.1 °F 29.6 in SSO 8.7 mph 17.5 mph 44% 0 in
09:29 72.3 °F 49.3 °F 29.6 in SSO 8.7 mph 17.3 mph 44% 0 in
09:34 72.3 °F 49.3 °F 29.6 in SSO 9.5 mph 17.3 mph 44% 0 in
09:39 72.5 °F 49.5 °F 29.6 in SSO 9.7 mph 19.2 mph 44% 0 in
09:44 72.7 °F 49.5 °F 29.6 in SSO 10.1 mph 20 mph 44% 0 in
09:49 72.9 °F 49.6 °F 29.6 in SSO 10.2 mph 17.3 mph 44% 0 in
09:54 72.9 °F 49.6 °F 29.6 in SSO 10.1 mph 17.3 mph 43.9% 0 in
09:59 73 °F 49.5 °F 29.6 in SSO 10 mph 17.3 mph 43.4% 0 in
10:04 73.2 °F 49.5 °F 29.6 in SO 9.8 mph 17 mph 43.2% 0 in
10:09 73.2 °F 49.5 °F 29.6 in SSO 9.7 mph 20.7 mph 43% 0 in
10:14 73.2 °F 49.3 °F 29.6 in SSO 9.9 mph 21 mph 42.9% 0 in
10:19 73.2 °F 48.9 °F 29.6 in SSO 10 mph 20.7 mph 42.3% 0 in
10:24 73.6 °F 49.1 °F 29.6 in SSO 10.6 mph 21 mph 42.1% 0 in
10:29 73.8 °F 49.3 °F 29.6 in SSO 10.7 mph 21 mph 42% 0 in
10:34 73.9 °F 49.5 °F 29.6 in SSO 11.2 mph 20 mph 41.9% 0 in
10:39 74.1 °F 48.9 °F 29.6 in SSO 11.4 mph 23 mph 41.1% 0 in
10:44 74.1 °F 48.9 °F 29.6 in SSO 11.4 mph 23 mph 41.1% 0 in
10:49 74.3 °F 49.1 °F 29.6 in SSO 11.4 mph 20 mph 41.1% 0 in
10:54 74.7 °F 49.3 °F 29.6 in SSO 10.9 mph 20 mph 41% 0 in
10:59 74.8 °F 49.5 °F 29.6 in SSO 10.7 mph 21.3 mph 41% 0 in
11:04 75.2 °F 49.6 °F 29.6 in SSO 11.1 mph 21 mph 40.8% 0 in
11:09 75.4 °F 50 °F 29.6 in SSO 11.2 mph 21 mph 41% 0 in
11:14 75.6 °F 50 °F 29.6 in SSO 10 mph 14 mph 40.6% 0 in
11:19 75.4 °F 50 °F 29.6 in SSO 9.7 mph 14 mph 41% 0 in
11:24 75.4 °F 50 °F 29.6 in SSO 8.1 mph 16.1 mph 41% 0 in
11:29 75.6 °F 50.4 °F 29.6 in SO 7.6 mph 16 mph 41.1% 0 in
11:34 75.7 °F 50.4 °F 29.6 in OSO 7 mph 12 mph 41% 0 in
11:39 75.6 °F 50.4 °F 29.6 in OSO 6.9 mph 12.7 mph 41% 0 in
11:44 75.6 °F 50.2 °F 29.6 in SSO 6.5 mph 13 mph 41% 0 in
11:49 76.1 °F 50.7 °F 29.6 in SSO 6.4 mph 13 mph 41% 0 in
11:54 76.5 °F 50.5 °F 29.6 in SSO 6.3 mph 12 mph 40.4% 0 in
11:59 76.5 °F 50.4 °F 29.6 in Sur 6.2 mph 11.2 mph 40% 0 in
12:04 76.6 °F 50.5 °F 29.6 in Sur 5.5 mph 12 mph 40% 0 in
12:09 76.8 °F 50.5 °F 29.6 in SSE 5.4 mph 9.2 mph 39.8% 0 in
12:14 77 °F 50.5 °F 29.6 in SSE 4.8 mph 9 mph 39.6% 0 in
12:19 77 °F 50.7 °F 29.6 in Sur 4.7 mph 8.1 mph 39.8% 0 in
12:24 77.4 °F 50.5 °F 29.6 in OSO 4.7 mph 9.2 mph 39.3% 0 in
12:29 77.2 °F 50.4 °F 29.6 in Oeste 4.7 mph 9 mph 39% 0 in
12:34 77.4 °F 50.4 °F 29.6 in Oeste 4.4 mph 8 mph 39.1% 0 in
12:39 77.5 °F 50.5 °F 29.6 in Oeste 4.3 mph 8.7 mph 39% 0 in
12:44 77.5 °F 50.7 °F 29.6 in ONO 3.4 mph 9.2 mph 39% 0 in
12:49 77.7 °F 50.7 °F 29.6 in NO 3.1 mph 9 mph 38.9% 0 in
12:54 78.1 °F 50.7 °F 29.6 in ONO 4 mph 9.2 mph 38.5% 0 in
12:59 78.3 °F 50 °F 29.6 in SSO 4.3 mph 16.1 mph 37.4% 0 in
13:04 78.3 °F 50 °F 29.6 in SO 5.9 mph 16 mph 37.2% 0 in
13:09 78.4 °F 50.7 °F 29.6 in NNO 6.2 mph 12 mph 38% 0 in
13:14 78.8 °F 51.1 °F 29.6 in NO 5.4 mph 10.2 mph 38% 0 in
13:19 79 °F 50.7 °F 29.6 in NO 5.2 mph 11.8 mph 37.4% 0 in
13:24 79 °F 51.3 °F 29.6 in NO 5.3 mph 12.7 mph 38% 0 in
13:29 79.2 °F 51.1 °F 29.6 in ONO 5.4 mph 15 mph 37.8% 0 in
13:34 79.2 °F 50.5 °F 29.6 in ONO 7.5 mph 18.5 mph 37% 0 in
13:39 79.2 °F 50.7 °F 29.6 in Oeste 8.1 mph 19 mph 37.2% 0 in
13:44 79.2 °F 50.9 °F 29.6 in ONO 9.8 mph 17 mph 37.3% 0 in
13:49 79.2 °F 50.9 °F 29.6 in Oeste 10.2 mph 23 mph 37.5% 0 in
13:54 79.2 °F 51.1 °F 29.6 in ONO 10.6 mph 23 mph 37.7% 0 in
13:59 79.2 °F 51.4 °F 29.6 in ONO 10.7 mph 21 mph 38% 0 in
14:04 79 °F 51.1 °F 29.6 in ONO 11.2 mph 23.5 mph 37.7% 0 in
14:09 78.6 °F 50.9 °F 29.6 in ONO 11.4 mph 23 mph 38% 0 in
14:14 78.6 °F 50.9 °F 29.6 in ONO 13 mph 19 mph 38% 0 in
14:19 79 °F 50.7 °F 29.6 in Oeste 13.5 mph 19 mph 37.3% 0 in
14:24 79.2 °F 50.5 °F 29.6 in Oeste 10.6 mph 17 mph 37% 0 in
14:29 79.2 °F 50.5 °F 29.6 in Oeste 9.7 mph 18.4 mph 37% 0 in
14:34 79.2 °F 50.5 °F 29.6 in ONO 9.9 mph 18.4 mph 37% 0 in
14:39 78.8 °F 50.7 °F 29.6 in ONO 10 mph 18.4 mph 37.4% 0 in
14:44 78.8 °F 50.5 °F 29.6 in ONO 10.9 mph 18 mph 37.5% 0 in
14:49 78.8 °F 50.4 °F 29.6 in ONO 11.2 mph 23 mph 37% 0 in
14:54 78.4 °F 50 °F 29.6 in ONO 11.2 mph 23 mph 36.8% 0 in
14:59 78.3 °F 49.8 °F 29.6 in ONO 11.2 mph 27.6 mph 37% 0 in
15:04 78.4 °F 49.8 °F 29.6 in Oeste 13 mph 28 mph 37% 0 in
15:09 78.4 °F 50 °F 29.6 in ONO 13.5 mph 26 mph 37% 0 in
15:14 78.3 °F 50.2 °F 29.6 in Oeste 12.7 mph 23 mph 37.3% 0 in
15:19 78.4 °F 50.2 °F 29.6 in Oeste 12.5 mph 24.2 mph 37.3% 0 in
15:24 78.3 °F 50.4 °F 29.6 in ONO 12.5 mph 24.2 mph 37.6% 0 in
15:29 78.1 °F 50.4 °F 29.6 in ONO 12.5 mph 25.3 mph 38% 0 in
15:34 77.9 °F 50.2 °F 29.6 in ONO 13.4 mph 25 mph 38% 0 in
15:39 77.9 °F 50.4 °F 29.7 in ONO 13.7 mph 21.3 mph 38.3% 0 in
15:44 78.1 °F 50.4 °F 29.7 in ONO 12.2 mph 21 mph 38% 0 in
15:49 78.1 °F 50.4 °F 29.7 in ONO 11.8 mph 22.3 mph 38% 0 in
15:54 77.9 °F 50.2 °F 29.7 in ONO 13.3 mph 26.3 mph 38% 0 in
15:59 77.5 °F 50 °F 29.7 in Oeste 13.7 mph 31.1 mph 38.2% 0 in
16:04 77.4 °F 50.2 °F 29.7 in ONO 16.8 mph 31 mph 38.6% 0 in
16:09 77.2 °F 50.4 °F 29.7 in ONO 17.5 mph 29 mph 39% 0 in
16:14 77.2 °F 50.4 °F 29.7 in ONO 16.2 mph 26.5 mph 39% 0 in
16:19 77.2 °F 50.2 °F 29.7 in Oeste 15.9 mph 26 mph 38.7% 0 in
16:24 77.4 °F 49.8 °F 29.7 in Oeste 15 mph 25.3 mph 38.1% 0 in
16:29 77.4 °F 50.4 °F 29.7 in Oeste 14.7 mph 25 mph 38.8% 0 in
16:34 77.4 °F 49.8 °F 29.7 in Oeste 13 mph 27.6 mph 38% 0 in
16:39 77.2 °F 48.9 °F 29.7 in Oeste 12.5 mph 31.1 mph 37% 0 in
16:44 77 °F 48.7 °F 29.7 in Oeste 14.2 mph 31 mph 37% 0 in
16:49 76.8 °F 48.7 °F 29.7 in Oeste 14.7 mph 23 mph 37.2% 0 in
16:54 76.8 °F 48.7 °F 29.7 in Oeste 13 mph 27.5 mph 37.3% 0 in
16:59 76.6 °F 49.1 °F 29.7 in Oeste 12.5 mph 28 mph 37.9% 0 in
17:04 76.5 °F 49.1 °F 29.7 in Oeste 13.5 mph 28 mph 38% 0 in
17:09 76.5 °F 48.9 °F 29.7 in OSO 13.7 mph 25 mph 38% 0 in
17:14 76.5 °F 48.4 °F 29.7 in Oeste 11.9 mph 25.3 mph 37.4% 0 in
17:19 76.3 °F 48.7 °F 29.7 in Oeste 11.4 mph 25 mph 38% 0 in
17:24 75.9 °F 48.2 °F 29.7 in Oeste 12.2 mph 30.1 mph 37.4% 0 in
17:29 75.9 °F 48 °F 29.7 in Oeste 12.5 mph 30 mph 37.4% 0 in
17:34 75.7 °F 48.2 °F 29.7 in OSO 10.7 mph 20 mph 37.9% 0 in
17:39 75.7 °F 48.2 °F 29.7 in OSO 10.2 mph 20.7 mph 38% 0 in
17:44 75.6 °F 48.2 °F 29.7 in OSO 9.8 mph 24.6 mph 38% 0 in
17:49 75.4 °F 48 °F 29.7 in Oeste 9.7 mph 25 mph 38% 0 in
17:54 75.2 °F 48.2 °F 29.7 in OSO 9.7 mph 17 mph 38.4% 0 in
17:59 75 °F 48.4 °F 29.7 in OSO 9.7 mph 16 mph 39% 0 in
18:04 74.8 °F 48.2 °F 29.7 in Oeste 8.7 mph 17.3 mph 39% 0 in
18:09 74.7 °F 48.2 °F 29.7 in OSO 8.5 mph 17 mph 39% 0 in
18:14 74.7 °F 48.6 °F 29.7 in OSO 7.6 mph 13 mph 39.8% 0 in
18:19 74.5 °F 48.6 °F 29.7 in OSO 7.4 mph 10 mph 40% 0 in
18:24 74.5 °F 48.6 °F 29.7 in OSO 5.7 mph 13.8 mph 40% 0 in
18:29 74.1 °F 48.4 °F 29.7 in OSO 5.2 mph 14 mph 40.4% 0 in
18:34 73.9 °F 48.7 °F 29.7 in OSO 6 mph 10.4 mph 41% 0 in
18:39 73.9 °F 48.7 °F 29.7 in OSO 6.2 mph 11.5 mph 41% 0 in
18:44 73.8 °F 48.7 °F 29.7 in Oeste 6.2 mph 12 mph 41.4% 0 in
18:49 73.4 °F 48.9 °F 29.7 in Oeste 6.2 mph 10.4 mph 42% 0 in
18:54 73.2 °F 48.7 °F 29.7 in Oeste 6.8 mph 14 mph 42% 0 in
18:59 73.2 °F 48.9 °F 29.7 in Oeste 6.9 mph 14 mph 42.3% 0 in
19:04 73 °F 49.3 °F 29.7 in Oeste 8.2 mph 14 mph 43% 0 in
19:09 72.9 °F 49.1 °F 29.8 in Oeste 8.5 mph 13 mph 43% 0 in
19:14 72.9 °F 49.1 °F 29.8 in Oeste 7.6 mph 13.8 mph 43% 0 in
19:19 72.9 °F 49.1 °F 29.8 in Oeste 7.4 mph 14 mph 43% 0 in
19:24 72.9 °F 49.1 °F 29.8 in Oeste 8 mph 16.1 mph 43% 0 in
19:29 72.7 °F 48.9 °F 29.8 in Oeste 8.1 mph 16 mph 43% 0 in
19:34 72.7 °F 48.9 °F 29.8 in OSO 7.7 mph 13 mph 43% 0 in
19:39 72.5 °F 48.7 °F 29.8 in OSO 7.6 mph 12 mph 43% 0 in
19:44 72.3 °F 48.6 °F 29.8 in OSO 6.5 mph 12 mph 43% 0 in
19:49 72.3 °F 48.7 °F 29.8 in OSO 6.2 mph 12 mph 43.1% 0 in
19:54 72.3 °F 48.6 °F 29.8 in SO 5.4 mph 10 mph 43% 0 in
19:59 72.3 °F 48.6 °F 29.8 in SO 5.2 mph 10 mph 43% 0 in
20:04 72.3 °F 49.1 °F 29.8 in SSO 4.5 mph 6 mph 43.8% 0 in
20:09 72.1 °F 49.1 °F 29.8 in Sur 4.3 mph 8.1 mph 44% 0 in
20:14 72 °F 48.9 °F 29.8 in SSO 4.3 mph 9.7 mph 44% 0 in
20:19 72 °F 48.9 °F 29.8 in SSO 4.3 mph 10 mph 44% 0 in
20:24 72.1 °F 48.7 °F 29.8 in SO 5.2 mph 9.2 mph 43.5% 0 in
20:29 72.3 °F 48.6 °F 29.8 in SO 5.4 mph 9 mph 43% 0 in
20:34 72.3 °F 48.6 °F 29.8 in SO 4.8 mph 9.2 mph 43% 0 in
20:39 72.3 °F 48.6 °F 29.8 in OSO 4.7 mph 9.2 mph 43% 0 in
20:44 72.1 °F 48.6 °F 29.8 in OSO 5.1 mph 9 mph 43% 0 in
20:49 72 °F 48.7 °F 29.8 in OSO 5.2 mph 6 mph 43.7% 0 in
20:54 71.8 °F 48.7 °F 29.8 in SO 3.9 mph 6.9 mph 44% 0 in
20:59 71.6 °F 48.6 °F 29.8 in SO 3.6 mph 7 mph 44% 0 in
21:04 71.2 °F 48.7 °F 29.8 in OSO 3.6 mph 7.4 mph 44.9% 0 in
21:09 71.1 °F 48.7 °F 29.8 in SO 3.6 mph 7 mph 45% 0 in
21:14 71.1 °F 48.6 °F 29.8 in SSO 4.2 mph 7.4 mph 45% 0 in
21:19 70.9 °F 48.9 °F 29.8 in SSO 4.3 mph 7 mph 45.9% 0 in
21:24 70.5 °F 48.7 °F 29.8 in SO 4.3 mph 7 mph 46% 0 in
21:29 70.5 °F 48.7 °F 29.8 in SO 4.3 mph 6.9 mph 46% 0 in
21:34 70.3 °F 48.6 °F 29.8 in SO 4.3 mph 7 mph 46% 0 in
21:39 70.2 °F 48.4 °F 29.8 in SO 4.3 mph 6.2 mph 46% 0 in
21:44 70 °F 48.7 °F 29.8 in OSO 3.7 mph 6 mph 46.8% 0 in
21:49 69.6 °F 48.6 °F 29.8 in OSO 3.6 mph 5.2 mph 47% 0 in
21:54 69.4 °F 48.4 °F 29.8 in OSO 3 mph 5 mph 47% 0 in
21:59 69.4 °F 48.2 °F 29.8 in OSO 2.9 mph 5.2 mph 47% 0 in
22:04 69.3 °F 48.7 °F 29.8 in OSO 3 mph 5 mph 48% 0 in
22:09 69.1 °F 48.6 °F 29.8 in Oeste 3.1 mph 5 mph 48% 0 in
22:14 68.9 °F 48.6 °F 29.8 in ONO 2.9 mph 17.3 mph 48.4% 0 in
22:19 69.3 °F 48.7 °F 29.8 in ONO 2.9 mph 17 mph 48% 0 in
22:24 69.3 °F 48.7 °F 29.8 in ONO 6.6 mph 15.9 mph 48% 0 in
22:29 69.3 °F 48.7 °F 29.8 in ONO 7.6 mph 17.5 mph 48% 0 in
22:34 69.3 °F 48.7 °F 29.8 in ONO 8.3 mph 17 mph 48% 0 in
22:39 69.3 °F 48.7 °F 29.8 in ONO 8.5 mph 15 mph 48% 0 in
22:44 69.3 °F 48.7 °F 29.8 in Oeste 8.6 mph 15 mph 48% 0 in
22:49 69.3 °F 48.7 °F 29.8 in SSO 8.7 mph 10 mph 47.9% 0 in
22:54 68.9 °F 48.6 °F 29.8 in SE 6.2 mph 9 mph 48.1% 0 in
22:59 68.5 °F 48.6 °F 29.8 in SSE 5.4 mph 6 mph 49% 0 in
23:04 68.2 °F 48.7 °F 29.8 in SSE 3.5 mph 6.9 mph 49.8% 0 in
23:09 67.8 °F 48.7 °F 29.8 in SSE 3.1 mph 7 mph 50.2% 0 in
23:14 67.6 °F 48.9 °F 29.8 in SSE 3.1 mph 5.8 mph 51% 0 in
23:19 67.5 °F 48.9 °F 29.8 in SSE 3.1 mph 6.9 mph 51.4% 0 in
23:24 67.5 °F 48.7 °F 29.8 in SO 3.8 mph 7 mph 51% 0 in
23:29 67.5 °F 48.9 °F 29.8 in ONO 4 mph 6 mph 51.7% 0 in
23:34 67.1 °F 48.9 °F 29.8 in Oeste 3.1 mph 6 mph 52% 0 in
23:39 67.1 °F 48.7 °F 29.9 in SO 2.9 mph 5 mph 52% 0 in
23:44 66.9 °F 48.7 °F 29.9 in SO 1.7 mph 4 mph 51.8% 0 in
23:49 67.3 °F 48.4 °F 29.9 in OSO 1.4 mph 6.2 mph 51% 0 in
23:54 67.5 °F 48.7 °F 29.9 in SO 2.5 mph 6.9 mph 51% 0 in
23:59 67.5 °F 48.7 °F 29.9 in SO 2.9 mph 7 mph 51% 0 in
Murcia-Puente Tocinos, Espa?a
Compliments of Weather Underground - 3.25 mb

La estación de MeteoMurcia.com, publica sus datos en los siguientes proyectos:

Weather Underground PWS IMURCIAP2 Meteoclimatic www.awekas.at

W3Counter
Web Analytics